createdAt,value
2023-01-18T00:00:28.789Z,98941.66
2023-01-18T00:02:56.174Z,98939.81
2023-01-18T00:05:23.715Z,98939.81
2023-01-18T00:07:50.887Z,98946.00
2023-01-18T00:10:18.026Z,98950.59
2023-01-18T00:12:46.534Z,98949.34
2023-01-18T00:15:13.586Z,98948.34
2023-01-18T00:17:52.859Z,98952.38
2023-01-18T00:20:23.019Z,98957.59
2023-01-18T00:22:51.484Z,98962.41
2023-01-18T00:25:20.588Z,98964.19
2023-01-18T00:27:51.737Z,98961.50
2023-01-18T00:30:21.275Z,98963.50
2023-01-18T00:32:49.302Z,98962.31
2023-01-18T00:35:17.376Z,98964.72
2023-01-18T00:37:45.181Z,98959.16
2023-01-18T00:40:12.419Z,98969.59
2023-01-18T00:42:58.435Z,98967.97
2023-01-18T00:45:26.932Z,98972.34
2023-01-18T00:47:53.877Z,98969.94
2023-01-18T00:50:22.314Z,98968.31
2023-01-18T00:52:50.072Z,98968.78
2023-01-18T00:55:17.887Z,98973.19
2023-01-18T00:57:47.020Z,98967.00
2023-01-18T01:00:16.702Z,98964.00
2023-01-18T01:02:45.427Z,98960.41
2023-01-18T01:05:37.568Z,98952.94
2023-01-18T01:08:06.082Z,98957.88
2023-01-18T01:10:33.906Z,98957.88
2023-01-18T01:13:19.746Z,98961.94
2023-01-18T01:16:05.654Z,98963.50
2023-01-18T01:18:52.209Z,98968.25
2023-01-18T01:21:37.772Z,98970.59
2023-01-18T01:24:23.628Z,98970.16
2023-01-18T01:26:50.500Z,98976.34
2023-01-18T01:29:17.574Z,98979.75
2023-01-18T01:31:44.487Z,98974.56
2023-01-18T01:34:13.147Z,98979.84
2023-01-18T01:36:40.108Z,98983.06
2023-01-18T01:39:09.057Z,98979.47
2023-01-18T01:41:36.422Z,98977.34
2023-01-18T01:44:43.438Z,98988.28
2023-01-18T01:47:19.343Z,98981.81
2023-01-18T01:50:01.166Z,98983.81
2023-01-18T01:52:35.932Z,98980.94
2023-01-18T01:55:11.610Z,98984.53
2023-01-18T01:57:45.085Z,98990.66
2023-01-18T02:00:16.416Z,98985.25
2023-01-18T02:02:46.735Z,98988.75
2023-01-18T02:05:17.721Z,98988.13
2023-01-18T02:07:45.458Z,98991.34
2023-01-18T02:10:12.956Z,98984.16
2023-01-18T02:12:44.763Z,98988.94
2023-01-18T02:15:11.917Z,98975.19
2023-01-18T02:18:05.306Z,98986.41
2023-01-18T02:21:14.419Z,98981.56
2023-01-18T02:24:44.464Z,98987.56
2023-01-18T02:27:22.305Z,98990.03
2023-01-18T02:30:15.147Z,98987.03
2023-01-18T02:33:05.477Z,98990.03
2023-01-18T02:35:47.171Z,98990.38
2023-01-18T02:38:20.967Z,98988.81
2023-01-18T02:41:06.826Z,98981.28
2023-01-18T02:43:54.736Z,98982.16
2023-01-18T02:46:31.146Z,98983.25
2023-01-18T02:49:00.616Z,98989.47
2023-01-18T02:51:27.560Z,98990.03
2023-01-18T02:53:54.450Z,98995.75
2023-01-18T02:56:26.016Z,98999.06
2023-01-18T02:58:59.477Z,99006.63
2023-01-18T03:01:34.806Z,99010.66
2023-01-18T03:04:12.278Z,99008.13
2023-01-18T03:06:44.894Z,99001.56
2023-01-18T03:09:18.392Z,98998.63
2023-01-18T03:11:57.631Z,98996.47
2023-01-18T03:14:39.242Z,99004.91
2023-01-18T03:17:18.274Z,99003.38
2023-01-18T03:20:07.215Z,98999.44
2023-01-18T03:22:58.130Z,99002.66
2023-01-18T03:25:30.555Z,99009.56
2023-01-18T03:28:22.689Z,99018.44
2023-01-18T03:31:11.156Z,99009.66
2023-01-18T03:33:47.957Z,99018.44
2023-01-18T03:36:25.381Z,99014.97
2023-01-18T03:39:00.456Z,99017.94
2023-01-18T03:41:37.010Z,99021.09
2023-01-18T03:44:11.985Z,99015.81
2023-01-18T03:46:40.990Z,99023.16
2023-01-18T03:49:10.075Z,99022.53
2023-01-18T03:52:01.867Z,99013.34
2023-01-18T03:54:37.051Z,99019.66
2023-01-18T03:57:32.335Z,99023.50
2023-01-18T04:00:01.485Z,99014.38
2023-01-18T04:02:28.949Z,99030.13
2023-01-18T04:04:58.326Z,99020.94
2023-01-18T04:07:26.046Z,99024.97
2023-01-18T04:09:53.503Z,99029.75
2023-01-18T04:12:20.425Z,99045.13
2023-01-18T04:14:47.345Z,99048.47
2023-01-18T04:17:14.352Z,99044.72
2023-01-18T04:19:41.407Z,99043.91
2023-01-18T04:22:10.224Z,99042.03
2023-01-18T04:24:37.502Z,99043.19
2023-01-18T04:27:04.511Z,99046.34
2023-01-18T04:29:31.659Z,99058.81
2023-01-18T04:31:58.582Z,99062.50
2023-01-18T04:34:25.525Z,99056.38
2023-01-18T04:36:53.557Z,99054.75
2023-01-18T04:39:22.097Z,99060.22
2023-01-18T04:41:49.228Z,99053.56
2023-01-18T04:44:16.805Z,99054.84
2023-01-18T04:46:43.975Z,99041.47
2023-01-18T04:49:15.336Z,99047.84
2023-01-18T04:51:43.587Z,99044.97
2023-01-18T04:54:12.184Z,99051.63
2023-01-18T04:56:40.500Z,99050.59
2023-01-18T04:59:07.593Z,99059.03
2023-01-18T05:01:35.650Z,99061.22
2023-01-18T05:04:03.403Z,99048.72
2023-01-18T05:06:30.364Z,99051.34
2023-01-18T05:08:57.774Z,99054.56
2023-01-18T05:11:24.773Z,99056.00
2023-01-18T05:13:52.968Z,99050.59
2023-01-18T05:16:23.319Z,99065.25
2023-01-18T05:18:50.370Z,99062.13
2023-01-18T05:21:17.351Z,99070.03
2023-01-18T05:23:44.783Z,99066.06
2023-01-18T05:26:17.166Z,99070.59
2023-01-18T05:28:45.305Z,99062.88
2023-01-18T05:31:15.229Z,99060.78
2023-01-18T05:33:42.428Z,99063.94
2023-01-18T05:36:10.017Z,99070.94
2023-01-18T05:38:36.999Z,99079.38
2023-01-18T05:41:04.157Z,99081.63
2023-01-18T05:43:31.099Z,99085.16
2023-01-18T05:45:59.199Z,99083.25
2023-01-18T05:48:27.576Z,99086.59
2023-01-18T05:50:54.555Z,99092.38
2023-01-18T05:53:23.275Z,99092.44
2023-01-18T05:55:58.741Z,99107.38
2023-01-18T05:58:27.290Z,99105.84
2023-01-18T06:00:55.471Z,99106.75
2023-01-18T06:03:25.058Z,99113.84
2023-01-18T06:05:53.375Z,99109.41
2023-01-18T06:08:20.998Z,99120.03
2023-01-18T06:10:53.492Z,99126.69
2023-01-18T06:13:21.403Z,99126.44
2023-01-18T06:15:49.749Z,99132.00
2023-01-18T06:18:16.749Z,99129.75
2023-01-18T06:20:43.875Z,99131.75
2023-01-18T06:23:12.340Z,99137.66
2023-01-18T06:25:39.259Z,99134.78
2023-01-18T06:28:06.330Z,99138.09
2023-01-18T06:30:34.318Z,99147.44
2023-01-18T06:33:06.516Z,99152.56
2023-01-18T06:35:33.833Z,99150.47
2023-01-18T06:38:00.884Z,99158.09
2023-01-18T06:40:29.300Z,99168.88
2023-01-18T06:42:56.951Z,99167.63
2023-01-18T06:45:25.785Z,99171.91
2023-01-18T06:47:53.300Z,99175.03
2023-01-18T06:50:21.213Z,99178.31
2023-01-18T06:52:48.481Z,99176.75
2023-01-18T06:55:15.955Z,99186.72
2023-01-18T06:57:54.869Z,99188.72
2023-01-18T07:00:23.534Z,99187.72
2023-01-18T07:02:52.836Z,99191.13
2023-01-18T07:05:21.009Z,99195.84
2023-01-18T07:07:47.986Z,99197.81
2023-01-18T07:10:29.968Z,99210.91
2023-01-18T07:13:02.921Z,99212.41
2023-01-18T07:15:35.076Z,99215.97
2023-01-18T07:18:01.965Z,99216.78
2023-01-18T07:20:29.399Z,99222.63
2023-01-18T07:22:56.702Z,99223.28
2023-01-18T07:25:23.913Z,99221.53
2023-01-18T07:27:51.273Z,99225.75
2023-01-18T07:30:20.231Z,99227.91
2023-01-18T07:32:49.972Z,99236.69
2023-01-18T07:35:20.159Z,99238.31
2023-01-18T07:37:49.498Z,99239.59
2023-01-18T07:40:18.781Z,99237.16
2023-01-18T07:42:47.037Z,99244.16
2023-01-18T07:45:14.753Z,99244.78
2023-01-18T07:47:43.415Z,99251.97
2023-01-18T07:50:11.995Z,99259.13
2023-01-18T07:52:39.163Z,99253.59
2023-01-18T07:55:07.351Z,99256.47
2023-01-18T07:57:34.598Z,99257.41
2023-01-18T08:00:02.092Z,99264.25
2023-01-18T08:02:29.607Z,99274.66
2023-01-18T08:05:02.118Z,99283.59
2023-01-18T08:07:35.160Z,99276.56
2023-01-18T08:10:02.532Z,99285.06
2023-01-18T08:12:30.670Z,99280.81
2023-01-18T08:14:58.787Z,99291.22
2023-01-18T08:17:27.840Z,99289.75
2023-01-18T08:19:55.054Z,99285.81
2023-01-18T08:22:23.534Z,99290.84
2023-01-18T08:24:50.949Z,99297.34
2023-01-18T08:27:18.088Z,99300.75
2023-01-18T08:29:46.823Z,99309.72
2023-01-18T08:32:15.387Z,99307.75
2023-01-18T08:34:43.814Z,99306.44
2023-01-18T08:37:11.754Z,99311.13
2023-01-18T08:39:40.119Z,99317.97
2023-01-18T08:42:15.746Z,99314.97
2023-01-18T08:45:09.621Z,99317.53
2023-01-18T08:47:56.978Z,99327.06
2023-01-18T08:50:46.322Z,99324.06
2023-01-18T08:53:26.367Z,99328.94
2023-01-18T08:56:05.736Z,99326.50
2023-01-18T08:59:19.974Z,99321.41
2023-01-18T09:02:11.370Z,99332.66
2023-01-18T09:04:38.412Z,99332.94
2023-01-18T09:07:09.545Z,99340.41
2023-01-18T09:09:44.824Z,99340.88
2023-01-18T09:12:29.251Z,99342.50
2023-01-18T09:15:14.128Z,99345.16
2023-01-18T09:17:42.748Z,99354.47
2023-01-18T09:20:31.021Z,99362.16
